sensor_id;sensor_type;location;lat;lon;timestamp;P1;durP1;ratioP1;P2;durP2;ratioP2
78929;SDS011;68329;47.664;9.356;2023-03-01T18:56:40;58.60;;;23.40;;
78929;SDS011;68329;47.664;9.356;2023-03-01T18:59:06;55.08;;;23.65;;
78929;SDS011;68329;47.664;9.356;2023-03-01T19:01:33;51.78;;;24.15;;
78929;SDS011;68329;47.664;9.356;2023-03-01T19:03:59;49.90;;;21.33;;
78929;SDS011;68329;47.664;9.356;2023-03-01T19:06:29;46.45;;;21.50;;
78929;SDS011;68329;47.664;9.356;2023-03-01T19:08:57;48.60;;;20.60;;
78929;SDS011;68329;47.664;9.356;2023-03-01T19:11:23;49.15;;;21.75;;
78929;SDS011;68329;47.664;9.356;2023-03-01T19:13:51;48.17;;;21.40;;
78929;SDS011;68329;47.664;9.356;2023-03-01T19:16:19;48.47;;;20.05;;
78929;SDS011;68329;47.664;9.356;2023-03-01T19:18:46;53.22;;;20.77;;
78929;SDS011;68329;47.664;9.356;2023-03-01T19:21:19;43.20;;;19.60;;
78929;SDS011;68329;47.664;9.356;2023-03-01T19:23:45;47.30;;;19.92;;
78929;SDS011;68329;47.664;9.356;2023-03-01T19:26:14;38.28;;;17.73;;
78929;SDS011;68329;47.664;9.356;2023-03-01T19:28:40;35.63;;;17.05;;
78929;SDS011;68329;47.664;9.356;2023-03-01T19:31:08;36.53;;;15.75;;
78929;SDS011;68329;47.664;9.356;2023-03-01T19:33:34;31.58;;;16.10;;
78929;SDS011;68329;47.664;9.356;2023-03-01T19:36:02;32.45;;;15.05;;
78929;SDS011;68329;47.664;9.356;2023-03-01T19:38:28;28.95;;;15.43;;
78929;SDS011;68329;47.664;9.356;2023-03-01T19:40:54;31.50;;;14.20;;
78929;SDS011;68329;47.664;9.356;2023-03-01T19:43:21;33.67;;;14.15;;
78929;SDS011;68329;47.664;9.356;2023-03-01T19:45:53;33.45;;;14.90;;
78929;SDS011;68329;47.664;9.356;2023-03-01T19:48:20;34.28;;;13.77;;
78929;SDS011;68329;47.664;9.356;2023-03-01T19:50:46;31.30;;;14.18;;
78929;SDS011;68329;47.664;9.356;2023-03-01T19:53:13;29.63;;;13.93;;
78929;SDS011;68329;47.664;9.356;2023-03-01T19:55:39;29.95;;;13.82;;
78929;SDS011;68329;47.664;9.356;2023-03-01T19:58:06;32.42;;;14.80;;
78929;SDS011;68329;47.664;9.356;2023-03-01T20:00:32;28.45;;;13.43;;
78929;SDS011;68329;47.664;9.356;2023-03-01T20:02:58;28.35;;;13.55;;
78929;SDS011;68329;47.664;9.356;2023-03-01T20:05:25;26.65;;;13.82;;
78929;SDS011;68329;47.664;9.356;2023-03-01T20:07:53;27.02;;;13.35;;
78929;SDS011;68329;47.664;9.356;2023-03-01T20:10:22;26.40;;;14.00;;
78929;SDS011;68329;47.664;9.356;2023-03-01T20:12:50;29.65;;;13.23;;
78929;SDS011;68329;47.664;9.356;2023-03-01T20:15:16;25.85;;;12.52;;
78929;SDS011;68329;47.664;9.356;2023-03-01T20:17:42;32.25;;;13.68;;
78929;SDS011;68329;47.664;9.356;2023-03-01T20:20:09;26.58;;;12.98;;
78929;SDS011;68329;47.664;9.356;2023-03-01T20:22:35;24.83;;;12.40;;
78929;SDS011;68329;47.664;9.356;2023-03-01T20:25:01;26.88;;;12.23;;
78929;SDS011;68329;47.664;9.356;2023-03-01T20:27:27;24.65;;;13.02;;
78929;SDS011;68329;47.664;9.356;2023-03-01T20:29:53;24.95;;;13.50;;
78929;SDS011;68329;47.664;9.356;2023-03-01T20:32:19;25.73;;;12.70;;
78929;SDS011;68329;47.664;9.356;2023-03-01T20:34:45;26.52;;;11.93;;
78929;SDS011;68329;47.664;9.356;2023-03-01T20:37:11;21.08;;;11.10;;
78929;SDS011;68329;47.664;9.356;2023-03-01T20:39:37;20.38;;;11.43;;
78929;SDS011;68329;47.664;9.356;2023-03-01T20:42:03;22.27;;;11.35;;
78929;SDS011;68329;47.664;9.356;2023-03-01T20:44:30;21.80;;;11.45;;
78929;SDS011;68329;47.664;9.356;2023-03-01T20:46:56;27.48;;;12.32;;
78929;SDS011;68329;47.664;9.356;2023-03-01T20:49:22;23.20;;;11.02;;
78929;SDS011;68329;47.664;9.356;2023-03-01T20:51:48;23.90;;;11.13;;
78929;SDS011;68329;47.664;9.356;2023-03-01T20:54:14;22.50;;;11.75;;
78929;SDS011;68329;47.664;9.356;2023-03-01T20:56:40;21.75;;;11.63;;
78929;SDS011;68329;47.664;9.356;2023-03-01T20:59:06;22.23;;;10.45;;
78929;SDS011;68329;47.664;9.356;2023-03-01T21:01:33;19.38;;;10.68;;
78929;SDS011;68329;47.664;9.356;2023-03-01T21:04:00;21.25;;;10.48;;
78929;SDS011;68329;47.664;9.356;2023-03-01T21:06:26;18.98;;;10.55;;
78929;SDS011;68329;47.664;9.356;2023-03-01T21:08:55;17.92;;;10.25;;
78929;SDS011;68329;47.664;9.356;2023-03-01T21:11:22;17.48;;;10.20;;
78929;SDS011;68329;47.664;9.356;2023-03-01T21:13:51;18.08;;;9.43;;
78929;SDS011;68329;47.664;9.356;2023-03-01T21:16:18;18.23;;;10.25;;
78929;SDS011;68329;47.664;9.356;2023-03-01T21:18:44;17.38;;;9.25;;
78929;SDS011;68329;47.664;9.356;2023-03-01T21:21:12;17.90;;;9.95;;
78929;SDS011;68329;47.664;9.356;2023-03-01T21:23:38;19.35;;;9.88;;
78929;SDS011;68329;47.664;9.356;2023-03-01T21:28:31;17.30;;;9.80;;
78929;SDS011;68329;47.664;9.356;2023-03-01T21:31:07;19.17;;;10.40;;
78929;SDS011;68329;47.664;9.356;2023-03-01T21:33:34;19.75;;;9.77;;
78929;SDS011;68329;47.664;9.356;2023-03-01T21:36:01;16.33;;;9.38;;
78929;SDS011;68329;47.664;9.356;2023-03-01T21:38:28;15.57;;;9.63;;
78929;SDS011;68329;47.664;9.356;2023-03-01T21:40:54;17.98;;;9.38;;
78929;SDS011;68329;47.664;9.356;2023-03-01T21:43:21;17.52;;;9.30;;
78929;SDS011;68329;47.664;9.356;2023-03-01T21:45:47;18.13;;;9.13;;
78929;SDS011;68329;47.664;9.356;2023-03-01T21:48:12;15.18;;;8.85;;
78929;SDS011;68329;47.664;9.356;2023-03-01T21:50:39;16.23;;;9.38;;
78929;SDS011;68329;47.664;9.356;2023-03-01T21:53:05;18.73;;;9.50;;
78929;SDS011;68329;47.664;9.356;2023-03-01T21:55:31;16.25;;;8.70;;
78929;SDS011;68329;47.664;9.356;2023-03-01T21:57:58;14.82;;;8.68;;
78929;SDS011;68329;47.664;9.356;2023-03-01T22:00:24;16.80;;;9.15;;
78929;SDS011;68329;47.664;9.356;2023-03-01T22:02:52;16.58;;;8.57;;
78929;SDS011;68329;47.664;9.356;2023-03-01T22:05:22;12.02;;;8.52;;
78929;SDS011;68329;47.664;9.356;2023-03-01T22:07:48;14.75;;;8.15;;
78929;SDS011;68329;47.664;9.356;2023-03-01T22:10:14;13.57;;;8.73;;
78929;SDS011;68329;47.664;9.356;2023-03-01T22:15:06;14.93;;;8.20;;
78929;SDS011;68329;47.664;9.356;2023-03-01T22:19:58;15.05;;;8.48;;
78929;SDS011;68329;47.664;9.356;2023-03-01T22:22:24;15.88;;;8.32;;
78929;SDS011;68329;47.664;9.356;2023-03-01T22:24:50;13.85;;;8.68;;
78929;SDS011;68329;47.664;9.356;2023-03-01T22:27:16;12.60;;;7.93;;
78929;SDS011;68329;47.664;9.356;2023-03-01T22:29:42;12.32;;;7.90;;
78929;SDS011;68329;47.664;9.356;2023-03-01T22:32:08;12.45;;;7.32;;
78929;SDS011;68329;47.664;9.356;2023-03-01T22:34:34;12.70;;;8.27;;
78929;SDS011;68329;47.664;9.356;2023-03-01T22:37:00;12.13;;;8.00;;
78929;SDS011;68329;47.664;9.356;2023-03-01T22:41:52;13.82;;;7.57;;
78929;SDS011;68329;47.664;9.356;2023-03-01T22:44:19;12.65;;;7.78;;
78929;SDS011;68329;47.664;9.356;2023-03-01T22:46:46;13.35;;;8.05;;
78929;SDS011;68329;47.664;9.356;2023-03-01T22:49:12;12.23;;;7.47;;
78929;SDS011;68329;47.664;9.356;2023-03-01T22:54:04;12.73;;;7.43;;
78929;SDS011;68329;47.664;9.356;2023-03-01T22:56:31;12.32;;;7.38;;
78929;SDS011;68329;47.664;9.356;2023-03-01T22:58:58;13.32;;;7.75;;
78929;SDS011;68329;47.664;9.356;2023-03-01T23:01:25;11.38;;;7.65;;
78929;SDS011;68329;47.664;9.356;2023-03-01T23:06:17;12.07;;;8.05;;
78929;SDS011;68329;47.664;9.356;2023-03-01T23:08:47;11.85;;;7.47;;
78929;SDS011;68329;47.664;9.356;2023-03-01T23:11:14;11.18;;;7.68;;
78929;SDS011;68329;47.664;9.356;2023-03-01T23:13:41;11.70;;;7.47;;
78929;SDS011;68329;47.664;9.356;2023-03-01T23:16:07;11.88;;;7.75;;
78929;SDS011;68329;47.664;9.356;2023-03-01T23:18:34;12.35;;;7.60;;
78929;SDS011;68329;47.664;9.356;2023-03-01T23:21:05;11.02;;;7.43;;
78929;SDS011;68329;47.664;9.356;2023-03-01T23:23:32;11.32;;;7.35;;
78929;SDS011;68329;47.664;9.356;2023-03-01T23:25:58;12.85;;;7.28;;
78929;SDS011;68329;47.664;9.356;2023-03-01T23:28:24;10.75;;;7.63;;
78929;SDS011;68329;47.664;9.356;2023-03-01T23:30:57;12.65;;;7.40;;
78929;SDS011;68329;47.664;9.356;2023-03-01T23:33:24;9.73;;;7.22;;
78929;SDS011;68329;47.664;9.356;2023-03-01T23:35:50;13.75;;;7.65;;
78929;SDS011;68329;47.664;9.356;2023-03-01T23:38:16;10.93;;;7.70;;
78929;SDS011;68329;47.664;9.356;2023-03-01T23:40:42;11.30;;;7.32;;
78929;SDS011;68329;47.664;9.356;2023-03-01T23:43:08;9.88;;;7.15;;
78929;SDS011;68329;47.664;9.356;2023-03-01T23:45:38;9.70;;;7.00;;
78929;SDS011;68329;47.664;9.356;2023-03-01T23:48:07;12.18;;;7.13;;
78929;SDS011;68329;47.664;9.356;2023-03-01T23:50:34;10.85;;;7.13;;
78929;SDS011;68329;47.664;9.356;2023-03-01T23:53:05;10.98;;;7.13;;
78929;SDS011;68329;47.664;9.356;2023-03-01T23:55:31;10.15;;;6.85;;
78929;SDS011;68329;47.664;9.356;2023-03-01T23:57:57;9.93;;;7.15;;
